フェニックス の空港の天気 - METARとTAF

フェニックス・スカイハーバー国際空港 ( KPHX / PHX ) - アメリカ アリゾナ州フェニックス
飛行場実況気象(Metar)
観測時間11/30 03:51 MST (11/30 10:51 UTC)
風向・風速静穏 0m/s
視程10km以上
天気現象
少しの雲 雲底高度 5490m
気温10℃
湿度34%
気圧1020.3hPa
METARKPHX 301051Z 00000KT 10SM FEW180 10/M05 A3016 RMK AO2 SLP203 T01001050 $
過去の天気等 Google飛行場航空写真 Wunderground天気予報

過去48時間のMETAR

飛行場予報(TAF)
発表時間: 11/30 02:07 MST (11/30 09:07 UTC)
予報対象時間: 30日2時 MST ~ 1日5時 MST
風向・風速東 5m/s
視程10km以上
全天の4割程度の雲 雲底高度 7620m
30日10時 MST から
風向・風速東南東 7m/s 瞬間風速 10m/s
視程10km以上
全天の8割程度の雲 雲底高度 7620m
30日16時 MST から
風向・風速東 3m/s
視程10km以上
全天の4割程度の雲 雲底高度 6100m
全天の4割程度の雲 雲底高度 7620m
KPHX 300907Z 3009/0112 09009KT P6SM SCT250 WS020/11040KT
FM301700 11014G20KT P6SM BKN250
FM302300 10006KT P6SM SCT200 SCT250